Sao Geraldo, Brazil
Current Conditions -  °F | °C
As of 3:00 PM on Monday 22 Dec 2014 (Local Time) from SBBQ Reporting Station
Broken Clouds Broken Clouds  
Wind Chill: 81°   Ceiling: 3200
Heat Index: 82°   Visibility: 6mi
Dew Point: 64°   Wind: 9mph
Humidity: 58%   Direction: 310°NW
Pressure: 30.06"   Gusts: NA
Location:  20.92°S, 42.83°W
Report Text: SBBQ 221700Z 31008KT 9999 BKN032 27/18 Q1018
Loading
Personal Weather Stations






























Interactive Weather Map New forecast layout! Learn more

10-Day Weather Forecast

Advertisements
Track Severe Weather on mobile